createdAt,value
2023-03-11T00:04:08.778Z,26.29
2023-03-11T00:09:10.293Z,25.69
2023-03-11T00:14:11.690Z,25.76
2023-03-11T00:19:13.183Z,25.68
2023-03-11T00:24:15.018Z,25.57
2023-03-11T00:29:16.396Z,25.11
2023-03-11T00:34:17.792Z,25.15
2023-03-11T00:39:19.203Z,25.18
2023-03-11T00:44:20.573Z,25.14
2023-03-11T00:49:21.985Z,25.08
2023-03-11T00:54:23.352Z,25.00
2023-03-11T00:59:24.733Z,25.21
2023-03-11T01:04:26.240Z,25.15
2023-03-11T01:09:27.646Z,24.96
2023-03-11T01:14:29.042Z,24.88
2023-03-11T01:19:30.444Z,24.96
2023-03-11T01:24:31.809Z,24.83
2023-03-11T01:29:33.191Z,24.93
2023-03-11T01:34:36.005Z,24.43
2023-03-11T01:39:37.406Z,24.36
2023-03-11T01:44:38.780Z,24.31
2023-03-11T01:49:41.954Z,24.34
2023-03-11T01:54:43.349Z,24.14
2023-03-11T01:59:50.355Z,23.96
2023-03-11T02:04:51.899Z,23.95
2023-03-11T02:09:53.277Z,23.85
2023-03-11T02:14:54.737Z,23.70
2023-03-11T02:20:02.016Z,23.71
2023-03-11T02:25:23.161Z,23.54
2023-03-11T02:30:24.586Z,23.78
2023-03-11T02:35:26.026Z,23.70
2023-03-11T02:40:29.758Z,23.28
2023-03-11T02:45:31.379Z,23.42
2023-03-11T02:50:34.427Z,23.57
2023-03-11T02:55:36.075Z,23.56
2023-03-11T03:00:38.251Z,23.56
2023-03-11T03:05:39.723Z,23.52
2023-03-11T03:10:41.115Z,23.43
2023-03-11T03:15:42.526Z,23.90
2023-03-11T03:20:43.939Z,23.82
2023-03-11T03:25:45.386Z,23.59
2023-03-11T03:30:46.788Z,23.56
2023-03-11T03:35:48.234Z,23.85
2023-03-11T03:40:49.889Z,23.78
2023-03-11T03:45:58.283Z,23.60
2023-03-11T03:51:07.703Z,23.53
2023-03-11T03:56:13.978Z,23.76
2023-03-11T04:01:15.376Z,23.84
2023-03-11T04:06:24.600Z,23.58
2023-03-11T04:11:25.979Z,23.54
2023-03-11T04:16:27.417Z,23.64
2023-03-11T04:21:28.816Z,23.78
2023-03-11T04:26:30.179Z,23.60
2023-03-11T04:31:31.563Z,23.55
2023-03-11T04:36:32.947Z,23.64
2023-03-11T04:41:34.337Z,23.69
2023-03-11T04:46:35.750Z,23.49
2023-03-11T04:51:37.208Z,23.77
2023-03-11T04:56:38.619Z,23.28
2023-03-11T05:01:40.162Z,23.46
2023-03-11T05:06:41.555Z,23.17
2023-03-11T05:11:42.948Z,23.29
2023-03-11T05:16:44.350Z,23.09
2023-03-11T05:21:45.744Z,22.83
2023-03-11T05:26:48.589Z,23.01
2023-03-11T05:31:50.112Z,22.98
2023-03-11T05:36:51.479Z,22.70
2023-03-11T05:41:52.950Z,22.68
2023-03-11T05:46:54.382Z,22.42
2023-03-11T05:51:58.521Z,22.34
2023-03-11T05:57:00.170Z,22.35
2023-03-11T06:02:01.844Z,22.20
2023-03-11T06:07:03.696Z,21.99
2023-03-11T06:12:05.337Z,22.02
2023-03-11T06:17:06.738Z,22.21
2023-03-11T06:22:08.123Z,22.14
2023-03-11T06:27:11.090Z,21.84
2023-03-11T06:32:12.555Z,21.48
2023-03-11T06:37:14.790Z,21.80
2023-03-11T06:42:16.174Z,21.59
2023-03-11T06:47:17.576Z,21.66
2023-03-11T06:52:19.120Z,21.39
2023-03-11T06:57:21.498Z,21.63
2023-03-11T07:02:22.896Z,21.65
2023-03-11T07:07:24.277Z,21.66
2023-03-11T07:12:25.688Z,21.56
2023-03-11T07:17:27.235Z,21.37
2023-03-11T07:22:29.849Z,21.37
2023-03-11T07:27:31.215Z,21.61
2023-03-11T07:32:32.671Z,21.55
2023-03-11T07:37:34.079Z,21.58
2023-03-11T07:42:35.602Z,21.37
2023-03-11T07:47:36.981Z,21.67
2023-03-11T07:52:38.501Z,21.44
2023-03-11T07:57:39.968Z,21.61
2023-03-11T08:02:41.399Z,21.38
2023-03-11T08:07:42.806Z,21.51
2023-03-11T08:12:44.467Z,21.48
2023-03-11T08:17:46.068Z,21.24
2023-03-11T08:22:57.577Z,21.34
2023-03-11T08:27:59.265Z,21.39
2023-03-11T08:33:00.771Z,21.58
2023-03-11T08:38:02.139Z,21.54
2023-03-11T08:43:03.606Z,21.46
2023-03-11T08:48:05.086Z,21.54
2023-03-11T08:53:06.456Z,21.69
2023-03-11T08:58:07.826Z,21.65
2023-03-11T09:03:09.931Z,21.67
2023-03-11T09:08:11.327Z,21.73
2023-03-11T09:13:12.703Z,21.55
2023-03-11T09:18:14.211Z,21.72
2023-03-11T09:23:16.516Z,21.83
2023-03-11T09:28:17.892Z,21.64
2023-03-11T09:33:19.295Z,21.59
2023-03-11T09:38:20.669Z,21.88
2023-03-11T09:43:35.776Z,21.66
2023-03-11T09:48:42.197Z,21.68
2023-03-11T09:53:47.134Z,21.88
2023-03-11T09:58:53.597Z,21.56
2023-03-11T10:03:56.589Z,21.84
2023-03-11T10:09:04.756Z,21.73
2023-03-11T10:14:30.525Z,21.73
2023-03-11T10:20:04.840Z,21.38
2023-03-11T10:25:16.974Z,21.62
2023-03-11T10:30:51.236Z,21.69
2023-03-11T10:35:58.386Z,21.49
2023-03-11T10:41:04.958Z,21.61
2023-03-11T10:46:10.442Z,21.62
2023-03-11T10:51:22.752Z,21.45
2023-03-11T10:56:37.037Z,21.38
2023-03-11T11:01:38.520Z,21.28
2023-03-11T11:06:39.915Z,21.28
2023-03-11T11:11:41.330Z,21.35
2023-03-11T11:16:42.775Z,21.45
2023-03-11T11:21:52.081Z,21.29
2023-03-11T11:27:22.947Z,21.33
2023-03-11T11:32:25.548Z,21.31
2023-03-11T11:37:31.698Z,21.22
2023-03-11T11:42:33.071Z,21.16
2023-03-11T11:47:34.972Z,21.07
2023-03-11T11:52:37.687Z,21.43
2023-03-11T11:57:39.062Z,21.02
2023-03-11T12:02:52.583Z,20.75
2023-03-11T12:08:06.540Z,20.52
2023-03-11T12:13:29.720Z,20.60
2023-03-11T12:18:45.181Z,20.45
2023-03-11T12:23:57.743Z,20.34
2023-03-11T12:29:00.724Z,20.09
2023-03-11T12:34:03.085Z,19.84
2023-03-11T12:39:06.257Z,20.28
2023-03-11T12:44:26.243Z,19.75
2023-03-11T12:49:30.492Z,19.92
2023-03-11T12:54:36.278Z,19.87
2023-03-11T12:59:47.773Z,19.89
2023-03-11T13:05:07.527Z,19.78
2023-03-11T13:10:16.005Z,19.87
2023-03-11T13:15:20.026Z,20.01
2023-03-11T13:20:41.307Z,20.36
2023-03-11T13:25:49.699Z,20.63
2023-03-11T13:31:17.409Z,20.56
2023-03-11T13:36:51.511Z,20.56
2023-03-11T13:41:52.938Z,20.46
2023-03-11T13:47:09.752Z,20.61
2023-03-11T13:52:24.370Z,20.45
2023-03-11T13:57:28.679Z,20.43
2023-03-11T14:02:30.163Z,20.39
2023-03-11T14:07:34.300Z,20.38
2023-03-11T14:12:35.796Z,20.40
2023-03-11T14:17:37.235Z,20.30
2023-03-11T14:22:38.623Z,19.89
2023-03-11T14:27:40.041Z,19.90
2023-03-11T14:32:42.529Z,20.08
2023-03-11T14:37:43.900Z,19.90
2023-03-11T14:42:46.816Z,19.96
2023-03-11T14:47:49.967Z,20.19
2023-03-11T14:52:52.926Z,20.13
2023-03-11T14:57:56.079Z,19.82
2023-03-11T15:03:12.483Z,20.01
2023-03-11T15:08:17.023Z,19.69
2023-03-11T15:13:18.401Z,19.56
2023-03-11T15:18:22.710Z,19.81
2023-03-11T15:23:24.174Z,19.62
2023-03-11T15:28:28.901Z,19.46
2023-03-11T15:33:32.611Z,19.54
2023-03-11T15:38:33.986Z,19.66
2023-03-11T15:43:46.610Z,19.39
2023-03-11T15:48:47.984Z,19.42
2023-03-11T15:53:49.410Z,19.23
2023-03-11T15:58:50.771Z,19.31
2023-03-11T16:03:52.247Z,19.40
2023-03-11T16:08:54.048Z,19.49
2023-03-11T16:13:55.420Z,19.38
2023-03-11T16:18:56.791Z,19.63
2023-03-11T16:23:58.158Z,19.56
2023-03-11T16:29:09.117Z,19.50
2023-03-11T16:34:19.549Z,19.43
2023-03-11T16:39:20.919Z,19.41
2023-03-11T16:44:22.299Z,19.40
2023-03-11T16:49:23.678Z,19.61
2023-03-11T16:54:25.044Z,19.42
2023-03-11T16:59:26.421Z,19.47
2023-03-11T17:04:27.787Z,19.74
2023-03-11T17:09:29.156Z,19.90
2023-03-11T17:14:32.021Z,19.68
2023-03-11T17:19:33.716Z,19.68
2023-03-11T17:24:35.261Z,19.71
2023-03-11T17:29:36.650Z,19.72
2023-03-11T17:34:38.032Z,19.62
2023-03-11T17:39:39.446Z,19.70
2023-03-11T17:44:50.955Z,19.66
2023-03-11T17:49:53.014Z,19.66
2023-03-11T17:54:56.369Z,19.58
2023-03-11T18:00:03.936Z,19.68
2023-03-11T18:05:05.727Z,19.53
2023-03-11T18:10:07.535Z,19.73
2023-03-11T18:15:14.220Z,19.54
2023-03-11T18:20:16.098Z,19.50
2023-03-11T18:25:17.574Z,19.38
2023-03-11T18:30:18.988Z,19.65
2023-03-11T18:35:20.940Z,19.60
2023-03-11T18:40:23.137Z,19.79
2023-03-11T18:45:24.510Z,19.36
2023-03-11T18:50:25.888Z,19.54
2023-03-11T18:55:27.255Z,19.47
2023-03-11T19:00:28.631Z,19.41
2023-03-11T19:05:29.996Z,19.39
2023-03-11T19:10:31.363Z,19.53
2023-03-11T19:15:32.788Z,19.32
2023-03-11T19:20:34.584Z,19.40
2023-03-11T19:25:35.984Z,19.38
2023-03-11T19:30:37.437Z,19.40
2023-03-11T19:35:38.846Z,19.45
2023-03-11T19:40:40.242Z,19.60
2023-03-11T19:45:41.632Z,19.28
2023-03-11T19:50:43.290Z,19.48
2023-03-11T19:55:45.509Z,19.51
2023-03-11T20:00:46.906Z,19.32
2023-03-11T20:05:49.023Z,19.28
2023-03-11T20:10:51.223Z,19.23
2023-03-11T20:15:52.913Z,19.22
2023-03-11T20:20:54.325Z,19.24
2023-03-11T20:25:55.714Z,19.01
2023-03-11T20:30:57.190Z,19.09
2023-03-11T20:36:06.183Z,19.34
2023-03-11T20:41:09.423Z,19.24
2023-03-11T20:46:11.187Z,18.93
2023-03-11T20:51:14.067Z,18.99
2023-03-11T20:56:19.995Z,19.01
2023-03-11T21:01:30.958Z,19.36
2023-03-11T21:06:34.492Z,19.11
2023-03-11T21:11:35.972Z,18.98
2023-03-11T21:16:38.608Z,19.00
2023-03-11T21:21:40.377Z,19.11
2023-03-11T21:26:41.949Z,19.05
2023-03-11T21:31:43.534Z,18.99
2023-03-11T21:36:45.105Z,19.00
2023-03-11T21:41:46.857Z,19.23
2023-03-11T21:46:48.425Z,19.13
2023-03-11T21:51:49.832Z,18.95
2023-03-11T21:56:51.404Z,18.95
2023-03-11T22:01:52.947Z,19.00
2023-03-11T22:06:56.940Z,19.18
2023-03-11T22:11:58.677Z,19.04
2023-03-11T22:17:00.359Z,18.99
2023-03-11T22:22:01.885Z,18.84
2023-03-11T22:27:03.433Z,18.81
2023-03-11T22:32:05.220Z,18.76
2023-03-11T22:37:06.691Z,18.94
2023-03-11T22:42:08.087Z,18.96
2023-03-11T22:47:09.463Z,18.57
2023-03-11T22:52:10.891Z,18.78
2023-03-11T22:57:12.263Z,18.68
2023-03-11T23:02:13.644Z,18.33
2023-03-11T23:07:15.023Z,18.55
2023-03-11T23:12:16.632Z,18.67
2023-03-11T23:17:18.000Z,18.53
2023-03-11T23:22:19.368Z,18.57
2023-03-11T23:27:20.859Z,18.74
2023-03-11T23:32:22.282Z,18.64
2023-03-11T23:37:23.808Z,18.39
2023-03-11T23:42:26.417Z,18.41
2023-03-11T23:47:28.251Z,18.17
2023-03-11T23:52:29.650Z,18.17
2023-03-11T23:57:31.181Z,18.31
